sensor_id;sensor_type;location;lat;lon;timestamp;P1;durP1;ratioP1;P2;durP2;ratioP2
4057;SDS011;2044;48.692;9.020;2022-11-15T00:01:06;3.90;;;2.90;;
4057;SDS011;2044;48.692;9.020;2022-11-15T00:03:33;8.87;;;3.00;;
4057;SDS011;2044;48.692;9.020;2022-11-15T00:06:02;3.57;;;2.40;;
4057;SDS011;2044;48.692;9.020;2022-11-15T00:08:30;3.90;;;2.97;;
4057;SDS011;2044;48.692;9.020;2022-11-15T00:10:57;5.07;;;2.70;;
4057;SDS011;2044;48.692;9.020;2022-11-15T00:13:25;2.90;;;2.60;;
4057;SDS011;2044;48.692;9.020;2022-11-15T00:15:52;2.80;;;2.50;;
4057;SDS011;2044;48.692;9.020;2022-11-15T00:18:22;7.90;;;2.50;;
4057;SDS011;2044;48.692;9.020;2022-11-15T00:20:49;2.80;;;2.53;;
4057;SDS011;2044;48.692;9.020;2022-11-15T00:23:17;3.10;;;2.30;;
4057;SDS011;2044;48.692;9.020;2022-11-15T00:25:43;3.43;;;2.63;;
4057;SDS011;2044;48.692;9.020;2022-11-15T00:28:10;3.97;;;2.60;;
4057;SDS011;2044;48.692;9.020;2022-11-15T00:30:37;2.83;;;2.40;;
4057;SDS011;2044;48.692;9.020;2022-11-15T00:33:04;3.33;;;2.10;;
4057;SDS011;2044;48.692;9.020;2022-11-15T00:35:31;2.93;;;2.47;;
4057;SDS011;2044;48.692;9.020;2022-11-15T00:37:59;5.30;;;2.33;;
4057;SDS011;2044;48.692;9.020;2022-11-15T00:40:27;5.00;;;2.47;;
4057;SDS011;2044;48.692;9.020;2022-11-15T00:42:54;6.47;;;3.13;;
4057;SDS011;2044;48.692;9.020;2022-11-15T00:45:21;2.73;;;2.23;;
4057;SDS011;2044;48.692;9.020;2022-11-15T00:47:48;3.70;;;2.20;;
4057;SDS011;2044;48.692;9.020;2022-11-15T00:50:15;2.17;;;1.97;;
4057;SDS011;2044;48.692;9.020;2022-11-15T00:52:42;6.00;;;2.80;;
4057;SDS011;2044;48.692;9.020;2022-11-15T00:55:09;3.20;;;2.50;;
4057;SDS011;2044;48.692;9.020;2022-11-15T00:57:41;3.20;;;2.30;;
4057;SDS011;2044;48.692;9.020;2022-11-15T01:00:08;3.47;;;2.60;;
4057;SDS011;2044;48.692;9.020;2022-11-15T01:02:35;4.63;;;3.00;;
4057;SDS011;2044;48.692;9.020;2022-11-15T01:05:02;5.50;;;2.80;;
4057;SDS011;2044;48.692;9.020;2022-11-15T01:07:29;5.60;;;2.70;;
4057;SDS011;2044;48.692;9.020;2022-11-15T01:09:56;3.37;;;2.63;;
4057;SDS011;2044;48.692;9.020;2022-11-15T01:12:23;5.37;;;2.97;;
4057;SDS011;2044;48.692;9.020;2022-11-15T01:14:51;3.00;;;2.70;;
4057;SDS011;2044;48.692;9.020;2022-11-15T01:17:18;3.00;;;2.37;;
4057;SDS011;2044;48.692;9.020;2022-11-15T01:19:45;2.73;;;2.53;;
4057;SDS011;2044;48.692;9.020;2022-11-15T01:22:11;4.40;;;2.60;;
4057;SDS011;2044;48.692;9.020;2022-11-15T01:24:38;7.00;;;2.53;;
4057;SDS011;2044;48.692;9.020;2022-11-15T01:27:05;4.30;;;2.67;;
4057;SDS011;2044;48.692;9.020;2022-11-15T01:29:32;4.73;;;3.30;;
4057;SDS011;2044;48.692;9.020;2022-11-15T01:32:00;4.00;;;2.67;;
4057;SDS011;2044;48.692;9.020;2022-11-15T01:34:27;5.10;;;2.63;;
4057;SDS011;2044;48.692;9.020;2022-11-15T01:36:54;5.00;;;2.83;;
4057;SDS011;2044;48.692;9.020;2022-11-15T01:39:20;3.33;;;2.43;;
4057;SDS011;2044;48.692;9.020;2022-11-15T01:41:47;2.87;;;2.37;;
4057;SDS011;2044;48.692;9.020;2022-11-15T01:44:34;3.90;;;3.10;;
4057;SDS011;2044;48.692;9.020;2022-11-15T01:47:14;3.40;;;2.43;;
4057;SDS011;2044;48.692;9.020;2022-11-15T01:49:47;3.03;;;2.27;;
4057;SDS011;2044;48.692;9.020;2022-11-15T01:52:19;2.60;;;2.40;;
4057;SDS011;2044;48.692;9.020;2022-11-15T01:54:48;3.43;;;2.50;;
4057;SDS011;2044;48.692;9.020;2022-11-15T01:57:19;3.50;;;2.70;;
4057;SDS011;2044;48.692;9.020;2022-11-15T01:59:46;3.20;;;2.30;;
4057;SDS011;2044;48.692;9.020;2022-11-15T02:02:15;3.07;;;2.77;;
4057;SDS011;2044;48.692;9.020;2022-11-15T02:04:42;3.60;;;2.57;;
4057;SDS011;2044;48.692;9.020;2022-11-15T02:07:11;4.80;;;2.40;;
4057;SDS011;2044;48.692;9.020;2022-11-15T02:09:40;2.93;;;2.43;;
4057;SDS011;2044;48.692;9.020;2022-11-15T02:12:08;2.43;;;2.13;;
4057;SDS011;2044;48.692;9.020;2022-11-15T02:14:37;3.60;;;2.80;;
4057;SDS011;2044;48.692;9.020;2022-11-15T02:17:08;3.20;;;2.60;;
4057;SDS011;2044;48.692;9.020;2022-11-15T02:20:14;3.90;;;2.50;;
4057;SDS011;2044;48.692;9.020;2022-11-15T02:23:13;4.10;;;2.50;;
4057;SDS011;2044;48.692;9.020;2022-11-15T02:26:08;5.23;;;2.40;;
4057;SDS011;2044;48.692;9.020;2022-11-15T02:29:10;3.13;;;2.27;;
4057;SDS011;2044;48.692;9.020;2022-11-15T02:31:41;3.77;;;2.30;;
4057;SDS011;2044;48.692;9.020;2022-11-15T02:34:16;4.10;;;3.00;;
4057;SDS011;2044;48.692;9.020;2022-11-15T02:36:50;3.90;;;2.50;;
4057;SDS011;2044;48.692;9.020;2022-11-15T02:39:31;2.87;;;2.37;;
4057;SDS011;2044;48.692;9.020;2022-11-15T02:42:04;2.70;;;2.50;;
4057;SDS011;2044;48.692;9.020;2022-11-15T02:44:55;3.77;;;2.90;;
4057;SDS011;2044;48.692;9.020;2022-11-15T02:47:24;3.17;;;2.87;;
4057;SDS011;2044;48.692;9.020;2022-11-15T02:49:56;5.63;;;2.60;;
4057;SDS011;2044;48.692;9.020;2022-11-15T02:52:26;4.60;;;2.50;;
4057;SDS011;2044;48.692;9.020;2022-11-15T02:54:54;2.97;;;2.50;;
4057;SDS011;2044;48.692;9.020;2022-11-15T02:57:25;3.93;;;2.50;;
4057;SDS011;2044;48.692;9.020;2022-11-15T03:00:05;4.20;;;2.43;;
4057;SDS011;2044;48.692;9.020;2022-11-15T03:05:33;2.93;;;2.30;;
4057;SDS011;2044;48.692;9.020;2022-11-15T03:08:03;2.90;;;2.30;;
4057;SDS011;2044;48.692;9.020;2022-11-15T03:10:36;2.73;;;2.40;;
4057;SDS011;2044;48.692;9.020;2022-11-15T03:13:10;2.73;;;2.43;;
4057;SDS011;2044;48.692;9.020;2022-11-15T03:15:46;2.80;;;2.17;;
4057;SDS011;2044;48.692;9.020;2022-11-15T03:18:21;2.83;;;2.53;;
4057;SDS011;2044;48.692;9.020;2022-11-15T03:20:55;2.63;;;2.30;;
4057;SDS011;2044;48.692;9.020;2022-11-15T03:23:24;2.50;;;2.30;;
4057;SDS011;2044;48.692;9.020;2022-11-15T03:25:52;4.00;;;2.40;;
4057;SDS011;2044;48.692;9.020;2022-11-15T03:28:22;3.37;;;2.10;;
4057;SDS011;2044;48.692;9.020;2022-11-15T03:30:54;3.60;;;2.30;;
4057;SDS011;2044;48.692;9.020;2022-11-15T03:33:23;3.27;;;2.73;;
4057;SDS011;2044;48.692;9.020;2022-11-15T03:35:51;2.87;;;2.43;;
4057;SDS011;2044;48.692;9.020;2022-11-15T03:38:19;2.30;;;2.00;;
4057;SDS011;2044;48.692;9.020;2022-11-15T03:40:51;2.83;;;2.33;;
4057;SDS011;2044;48.692;9.020;2022-11-15T03:43:24;2.70;;;2.30;;
4057;SDS011;2044;48.692;9.020;2022-11-15T03:46:00;4.53;;;2.63;;
4057;SDS011;2044;48.692;9.020;2022-11-15T03:48:33;2.53;;;2.30;;
4057;SDS011;2044;48.692;9.020;2022-11-15T03:51:03;2.30;;;2.10;;
4057;SDS011;2044;48.692;9.020;2022-11-15T03:53:31;3.03;;;2.37;;
4057;SDS011;2044;48.692;9.020;2022-11-15T03:55:57;2.80;;;2.40;;
4057;SDS011;2044;48.692;9.020;2022-11-15T03:58:24;2.63;;;2.30;;
4057;SDS011;2044;48.692;9.020;2022-11-15T04:00:51;2.90;;;2.60;;
4057;SDS011;2044;48.692;9.020;2022-11-15T04:03:18;4.57;;;3.13;;
4057;SDS011;2044;48.692;9.020;2022-11-15T04:05:46;2.47;;;2.27;;
4057;SDS011;2044;48.692;9.020;2022-11-15T04:08:12;2.97;;;2.33;;
4057;SDS011;2044;48.692;9.020;2022-11-15T04:10:39;3.20;;;2.50;;
4057;SDS011;2044;48.692;9.020;2022-11-15T04:13:06;3.70;;;2.70;;
4057;SDS011;2044;48.692;9.020;2022-11-15T04:15:33;3.40;;;2.53;;
4057;SDS011;2044;48.692;9.020;2022-11-15T04:18:00;3.20;;;2.47;;
4057;SDS011;2044;48.692;9.020;2022-11-15T04:20:27;4.80;;;2.53;;
4057;SDS011;2044;48.692;9.020;2022-11-15T04:23:15;3.47;;;2.33;;
4057;SDS011;2044;48.692;9.020;2022-11-15T04:26:01;4.80;;;2.60;;
4057;SDS011;2044;48.692;9.020;2022-11-15T04:28:29;4.60;;;2.67;;
4057;SDS011;2044;48.692;9.020;2022-11-15T04:30:56;2.53;;;2.10;;
4057;SDS011;2044;48.692;9.020;2022-11-15T04:33:23;3.00;;;2.40;;
4057;SDS011;2044;48.692;9.020;2022-11-15T04:35:50;3.20;;;2.50;;
4057;SDS011;2044;48.692;9.020;2022-11-15T04:38:32;3.80;;;3.03;;
4057;SDS011;2044;48.692;9.020;2022-11-15T04:40:59;3.60;;;2.77;;
4057;SDS011;2044;48.692;9.020;2022-11-15T04:43:26;4.87;;;3.40;;
4057;SDS011;2044;48.692;9.020;2022-11-15T04:45:53;6.13;;;2.90;;
4057;SDS011;2044;48.692;9.020;2022-11-15T04:48:20;4.33;;;3.40;;
4057;SDS011;2044;48.692;9.020;2022-11-15T04:50:47;5.50;;;2.67;;
4057;SDS011;2044;48.692;9.020;2022-11-15T04:53:14;7.00;;;3.07;;
4057;SDS011;2044;48.692;9.020;2022-11-15T04:55:45;8.33;;;4.43;;
4057;SDS011;2044;48.692;9.020;2022-11-15T04:58:12;6.60;;;5.13;;
4057;SDS011;2044;48.692;9.020;2022-11-15T05:00:39;7.73;;;5.40;;
4057;SDS011;2044;48.692;9.020;2022-11-15T05:03:06;6.73;;;5.70;;
4057;SDS011;2044;48.692;9.020;2022-11-15T05:05:52;8.30;;;5.10;;
4057;SDS011;2044;48.692;9.020;2022-11-15T05:08:18;6.47;;;4.77;;
4057;SDS011;2044;48.692;9.020;2022-11-15T05:10:46;6.20;;;3.80;;
4057;SDS011;2044;48.692;9.020;2022-11-15T05:13:13;4.30;;;3.80;;
4057;SDS011;2044;48.692;9.020;2022-11-15T05:15:40;4.70;;;3.00;;
4057;SDS011;2044;48.692;9.020;2022-11-15T05:18:07;6.37;;;4.17;;
4057;SDS011;2044;48.692;9.020;2022-11-15T05:20:34;5.20;;;3.23;;
4057;SDS011;2044;48.692;9.020;2022-11-15T05:23:00;4.00;;;2.70;;
4057;SDS011;2044;48.692;9.020;2022-11-15T05:25:27;4.67;;;2.40;;
4057;SDS011;2044;48.692;9.020;2022-11-15T05:27:55;3.20;;;2.70;;
4057;SDS011;2044;48.692;9.020;2022-11-15T05:30:22;2.83;;;2.50;;
4057;SDS011;2044;48.692;9.020;2022-11-15T05:32:49;3.37;;;2.47;;
4057;SDS011;2044;48.692;9.020;2022-11-15T05:35:18;2.90;;;2.27;;
4057;SDS011;2044;48.692;9.020;2022-11-15T05:37:57;3.07;;;2.70;;
4057;SDS011;2044;48.692;9.020;2022-11-15T05:40:24;3.23;;;2.40;;
4057;SDS011;2044;48.692;9.020;2022-11-15T05:42:51;3.00;;;1.90;;
4057;SDS011;2044;48.692;9.020;2022-11-15T05:45:20;2.10;;;1.60;;
4057;SDS011;2044;48.692;9.020;2022-11-15T05:47:46;2.50;;;2.30;;
4057;SDS011;2044;48.692;9.020;2022-11-15T05:50:16;4.27;;;2.20;;
4057;SDS011;2044;48.692;9.020;2022-11-15T05:52:44;2.43;;;2.00;;
4057;SDS011;2044;48.692;9.020;2022-11-15T05:55:12;3.83;;;3.10;;
4057;SDS011;2044;48.692;9.020;2022-11-15T05:57:39;4.77;;;3.33;;
4057;SDS011;2044;48.692;9.020;2022-11-15T06:00:07;6.10;;;3.40;;
4057;SDS011;2044;48.692;9.020;2022-11-15T06:02:36;4.03;;;2.70;;
4057;SDS011;2044;48.692;9.020;2022-11-15T06:05:03;8.17;;;3.60;;
4057;SDS011;2044;48.692;9.020;2022-11-15T06:07:30;6.23;;;3.10;;
4057;SDS011;2044;48.692;9.020;2022-11-15T06:09:57;5.60;;;2.40;;
4057;SDS011;2044;48.692;9.020;2022-11-15T06:12:24;2.43;;;2.13;;
4057;SDS011;2044;48.692;9.020;2022-11-15T06:14:50;2.77;;;2.40;;
4057;SDS011;2044;48.692;9.020;2022-11-15T06:17:17;5.07;;;4.17;;
4057;SDS011;2044;48.692;9.020;2022-11-15T06:19:45;4.17;;;2.80;;
4057;SDS011;2044;48.692;9.020;2022-11-15T06:22:12;8.10;;;4.97;;
4057;SDS011;2044;48.692;9.020;2022-11-15T06:24:39;11.13;;;6.80;;
4057;SDS011;2044;48.692;9.020;2022-11-15T06:27:05;4.77;;;3.53;;
4057;SDS011;2044;48.692;9.020;2022-11-15T06:29:32;5.73;;;4.27;;
4057;SDS011;2044;48.692;9.020;2022-11-15T06:31:59;4.83;;;3.97;;
4057;SDS011;2044;48.692;9.020;2022-11-15T06:34:25;4.93;;;3.50;;
4057;SDS011;2044;48.692;9.020;2022-11-15T06:36:53;5.00;;;3.50;;
4057;SDS011;2044;48.692;9.020;2022-11-15T06:39:20;3.80;;;3.00;;
4057;SDS011;2044;48.692;9.020;2022-11-15T06:41:47;3.33;;;2.67;;
4057;SDS011;2044;48.692;9.020;2022-11-15T06:44:13;5.57;;;3.30;;
4057;SDS011;2044;48.692;9.020;2022-11-15T06:46:41;3.10;;;2.43;;
4057;SDS011;2044;48.692;9.020;2022-11-15T06:49:08;4.13;;;2.70;;
4057;SDS011;2044;48.692;9.020;2022-11-15T06:51:35;10.03;;;2.70;;
4057;SDS011;2044;48.692;9.020;2022-11-15T06:54:03;4.90;;;2.63;;
4057;SDS011;2044;48.692;9.020;2022-11-15T06:56:29;4.10;;;2.60;;
4057;SDS011;2044;48.692;9.020;2022-11-15T06:58:56;3.40;;;2.83;;
4057;SDS011;2044;48.692;9.020;2022-11-15T07:01:23;5.70;;;2.70;;
4057;SDS011;2044;48.692;9.020;2022-11-15T07:03:50;4.67;;;2.80;;
4057;SDS011;2044;48.692;9.020;2022-11-15T07:06:17;4.30;;;2.87;;
4057;SDS011;2044;48.692;9.020;2022-11-15T07:08:43;4.37;;;2.83;;
4057;SDS011;2044;48.692;9.020;2022-11-15T07:11:12;2.60;;;2.30;;
4057;SDS011;2044;48.692;9.020;2022-11-15T07:13:39;4.73;;;2.37;;
4057;SDS011;2044;48.692;9.020;2022-11-15T07:16:07;3.43;;;2.13;;
4057;SDS011;2044;48.692;9.020;2022-11-15T07:18:35;5.40;;;3.57;;
4057;SDS011;2044;48.692;9.020;2022-11-15T07:21:02;3.17;;;2.33;;
4057;SDS011;2044;48.692;9.020;2022-11-15T07:23:30;6.37;;;2.97;;
4057;SDS011;2044;48.692;9.020;2022-11-15T07:25:57;2.83;;;2.50;;
4057;SDS011;2044;48.692;9.020;2022-11-15T07:28:26;3.70;;;2.90;;
4057;SDS011;2044;48.692;9.020;2022-11-15T07:30:53;2.10;;;1.90;;
4057;SDS011;2044;48.692;9.020;2022-11-15T07:33:20;3.37;;;2.73;;
4057;SDS011;2044;48.692;9.020;2022-11-15T07:35:46;3.60;;;2.30;;
4057;SDS011;2044;48.692;9.020;2022-11-15T07:38:14;3.03;;;2.30;;
4057;SDS011;2044;48.692;9.020;2022-11-15T07:40:44;3.20;;;1.70;;
4057;SDS011;2044;48.692;9.020;2022-11-15T07:43:11;28.33;;;3.40;;
4057;SDS011;2044;48.692;9.020;2022-11-15T07:45:41;25.43;;;4.13;;
4057;SDS011;2044;48.692;9.020;2022-11-15T07:48:09;10.40;;;3.30;;
4057;SDS011;2044;48.692;9.020;2022-11-15T07:50:35;3.73;;;2.60;;
4057;SDS011;2044;48.692;9.020;2022-11-15T07:53:03;4.47;;;2.43;;
4057;SDS011;2044;48.692;9.020;2022-11-15T07:55:29;7.03;;;2.70;;
4057;SDS011;2044;48.692;9.020;2022-11-15T07:58:00;3.30;;;2.10;;
4057;SDS011;2044;48.692;9.020;2022-11-15T08:00:27;2.03;;;1.93;;
4057;SDS011;2044;48.692;9.020;2022-11-15T08:03:02;2.13;;;1.87;;
4057;SDS011;2044;48.692;9.020;2022-11-15T08:05:30;2.60;;;2.27;;
4057;SDS011;2044;48.692;9.020;2022-11-15T08:07:57;3.40;;;2.23;;
4057;SDS011;2044;48.692;9.020;2022-11-15T08:10:24;3.23;;;1.70;;
4057;SDS011;2044;48.692;9.020;2022-11-15T08:12:56;3.50;;;2.23;;
4057;SDS011;2044;48.692;9.020;2022-11-15T08:15:23;2.90;;;2.40;;
4057;SDS011;2044;48.692;9.020;2022-11-15T08:17:53;3.90;;;2.30;;
4057;SDS011;2044;48.692;9.020;2022-11-15T08:20:21;2.27;;;2.07;;
4057;SDS011;2044;48.692;9.020;2022-11-15T08:22:48;2.10;;;2.00;;
4057;SDS011;2044;48.692;9.020;2022-11-15T08:25:15;2.40;;;2.20;;
4057;SDS011;2044;48.692;9.020;2022-11-15T08:27:42;2.80;;;2.40;;
4057;SDS011;2044;48.692;9.020;2022-11-15T08:30:10;2.60;;;2.40;;
4057;SDS011;2044;48.692;9.020;2022-11-15T08:32:37;2.80;;;2.60;;
4057;SDS011;2044;48.692;9.020;2022-11-15T08:35:04;2.80;;;2.60;;
4057;SDS011;2044;48.692;9.020;2022-11-15T08:37:33;3.50;;;2.43;;
4057;SDS011;2044;48.692;9.020;2022-11-15T08:40:00;2.57;;;2.37;;
4057;SDS011;2044;48.692;9.020;2022-11-15T08:42:26;4.30;;;3.17;;
4057;SDS011;2044;48.692;9.020;2022-11-15T08:44:53;3.57;;;2.80;;
4057;SDS011;2044;48.692;9.020;2022-11-15T08:47:20;3.33;;;2.70;;
4057;SDS011;2044;48.692;9.020;2022-11-15T08:49:47;3.43;;;2.60;;
4057;SDS011;2044;48.692;9.020;2022-11-15T08:52:14;2.93;;;2.73;;
4057;SDS011;2044;48.692;9.020;2022-11-15T08:54:42;4.40;;;3.47;;
4057;SDS011;2044;48.692;9.020;2022-11-15T08:57:09;3.80;;;3.60;;
4057;SDS011;2044;48.692;9.020;2022-11-15T08:59:35;3.60;;;3.30;;
4057;SDS011;2044;48.692;9.020;2022-11-15T09:02:02;3.70;;;3.40;;
4057;SDS011;2044;48.692;9.020;2022-11-15T09:04:30;3.83;;;3.53;;
4057;SDS011;2044;48.692;9.020;2022-11-15T09:06:57;3.70;;;3.50;;
4057;SDS011;2044;48.692;9.020;2022-11-15T09:09:23;4.27;;;3.90;;
4057;SDS011;2044;48.692;9.020;2022-11-15T09:11:51;5.50;;;3.80;;
4057;SDS011;2044;48.692;9.020;2022-11-15T09:14:18;5.13;;;3.70;;
4057;SDS011;2044;48.692;9.020;2022-11-15T09:16:45;4.37;;;4.17;;
4057;SDS011;2044;48.692;9.020;2022-11-15T09:19:11;5.17;;;4.67;;
4057;SDS011;2044;48.692;9.020;2022-11-15T09:21:39;5.10;;;4.33;;
4057;SDS011;2044;48.692;9.020;2022-11-15T09:24:06;4.77;;;4.37;;
4057;SDS011;2044;48.692;9.020;2022-11-15T09:26:33;6.20;;;4.60;;
4057;SDS011;2044;48.692;9.020;2022-11-15T09:29:01;10.10;;;5.63;;
4057;SDS011;2044;48.692;9.020;2022-11-15T09:31:28;7.33;;;6.20;;
4057;SDS011;2044;48.692;9.020;2022-11-15T09:33:55;10.97;;;6.77;;
4057;SDS011;2044;48.692;9.020;2022-11-15T09:36:22;8.53;;;6.90;;
4057;SDS011;2044;48.692;9.020;2022-11-15T09:38:48;12.47;;;7.13;;
4057;SDS011;2044;48.692;9.020;2022-11-15T09:44:21;8.20;;;7.60;;
4057;SDS011;2044;48.692;9.020;2022-11-15T09:46:59;8.47;;;7.73;;
4057;SDS011;2044;48.692;9.020;2022-11-15T09:49:35;8.20;;;7.70;;
4057;SDS011;2044;48.692;9.020;2022-11-15T09:52:01;8.03;;;7.53;;
4057;SDS011;2044;48.692;9.020;2022-11-15T09:54:30;8.77;;;7.83;;
4057;SDS011;2044;48.692;9.020;2022-11-15T09:57:02;8.43;;;7.53;;
4057;SDS011;2044;48.692;9.020;2022-11-15T09:59:42;6.67;;;6.10;;
4057;SDS011;2044;48.692;9.020;2022-11-15T10:02:22;6.60;;;6.20;;
4057;SDS011;2044;48.692;9.020;2022-11-15T10:05:03;6.63;;;6.00;;
4057;SDS011;2044;48.692;9.020;2022-11-15T10:07:37;5.60;;;5.30;;
4057;SDS011;2044;48.692;9.020;2022-11-15T10:10:13;5.27;;;4.97;;
4057;SDS011;2044;48.692;9.020;2022-11-15T10:12:47;5.47;;;5.07;;
4057;SDS011;2044;48.692;9.020;2022-11-15T10:15:17;5.67;;;5.27;;
4057;SDS011;2044;48.692;9.020;2022-11-15T10:20:46;5.57;;;5.23;;
4057;SDS011;2044;48.692;9.020;2022-11-15T10:23:16;6.33;;;5.83;;
4057;SDS011;2044;48.692;9.020;2022-11-15T10:25:44;6.30;;;5.80;;
4057;SDS011;2044;48.692;9.020;2022-11-15T10:28:13;5.03;;;4.67;;
4057;SDS011;2044;48.692;9.020;2022-11-15T10:30:43;4.47;;;4.17;;
4057;SDS011;2044;48.692;9.020;2022-11-15T10:33:25;4.33;;;4.13;;
4057;SDS011;2044;48.692;9.020;2022-11-15T10:36:15;4.80;;;4.40;;
4057;SDS011;2044;48.692;9.020;2022-11-15T10:38:50;3.63;;;3.50;;
4057;SDS011;2044;48.692;9.020;2022-11-15T10:41:22;3.30;;;3.10;;
4057;SDS011;2044;48.692;9.020;2022-11-15T10:44:11;3.43;;;3.23;;
4057;SDS011;2044;48.692;9.020;2022-11-15T10:46:46;3.93;;;2.80;;
4057;SDS011;2044;48.692;9.020;2022-11-15T10:49:16;3.20;;;3.00;;
4057;SDS011;2044;48.692;9.020;2022-11-15T10:51:45;2.73;;;2.63;;
4057;SDS011;2044;48.692;9.020;2022-11-15T10:54:22;3.53;;;3.23;;
4057;SDS011;2044;48.692;9.020;2022-11-15T10:56:51;3.77;;;3.47;;
4057;SDS011;2044;48.692;9.020;2022-11-15T10:59:22;3.70;;;3.17;;
4057;SDS011;2044;48.692;9.020;2022-11-15T11:01:53;3.73;;;3.40;;
4057;SDS011;2044;48.692;9.020;2022-11-15T11:04:20;3.33;;;3.13;;
4057;SDS011;2044;48.692;9.020;2022-11-15T11:06:47;4.10;;;3.20;;
4057;SDS011;2044;48.692;9.020;2022-11-15T11:09:22;3.60;;;3.30;;
4057;SDS011;2044;48.692;9.020;2022-11-15T11:11:54;3.33;;;3.13;;
4057;SDS011;2044;48.692;9.020;2022-11-15T11:14:23;3.37;;;3.17;;
4057;SDS011;2044;48.692;9.020;2022-11-15T11:16:54;4.20;;;3.80;;
4057;SDS011;2044;48.692;9.020;2022-11-15T11:19:33;3.20;;;3.00;;
4057;SDS011;2044;48.692;9.020;2022-11-15T11:22:11;3.70;;;3.40;;
4057;SDS011;2044;48.692;9.020;2022-11-15T11:24:44;3.80;;;3.50;;
4057;SDS011;2044;48.692;9.020;2022-11-15T11:27:21;4.20;;;3.80;;
4057;SDS011;2044;48.692;9.020;2022-11-15T11:30:00;3.80;;;3.60;;
4057;SDS011;2044;48.692;9.020;2022-11-15T11:32:41;3.70;;;3.50;;
4057;SDS011;2044;48.692;9.020;2022-11-15T11:35:23;3.67;;;3.47;;
4057;SDS011;2044;48.692;9.020;2022-11-15T11:37:54;3.90;;;3.50;;
4057;SDS011;2044;48.692;9.020;2022-11-15T11:40:28;4.13;;;3.80;;
4057;SDS011;2044;48.692;9.020;2022-11-15T11:42:58;5.33;;;4.93;;
4057;SDS011;2044;48.692;9.020;2022-11-15T11:48:34;4.00;;;3.70;;
4057;SDS011;2044;48.692;9.020;2022-11-15T11:51:08;4.73;;;3.60;;
4057;SDS011;2044;48.692;9.020;2022-11-15T11:53:42;3.87;;;3.67;;
4057;SDS011;2044;48.692;9.020;2022-11-15T11:56:16;3.70;;;3.50;;
4057;SDS011;2044;48.692;9.020;2022-11-15T11:58:51;3.70;;;3.40;;
4057;SDS011;2044;48.692;9.020;2022-11-15T12:01:22;3.97;;;3.77;;
4057;SDS011;2044;48.692;9.020;2022-11-15T12:03:52;4.17;;;3.97;;
4057;SDS011;2044;48.692;9.020;2022-11-15T12:06:24;3.70;;;3.50;;
4057;SDS011;2044;48.692;9.020;2022-11-15T12:08:58;3.70;;;3.50;;
4057;SDS011;2044;48.692;9.020;2022-11-15T12:11:34;4.20;;;4.00;;
4057;SDS011;2044;48.692;9.020;2022-11-15T12:14:08;3.23;;;3.13;;
4057;SDS011;2044;48.692;9.020;2022-11-15T12:16:45;5.10;;;2.90;;
4057;SDS011;2044;48.692;9.020;2022-11-15T12:19:13;3.93;;;3.37;;
4057;SDS011;2044;48.692;9.020;2022-11-15T12:21:42;3.30;;;3.10;;
4057;SDS011;2044;48.692;9.020;2022-11-15T12:24:13;3.57;;;3.37;;
4057;SDS011;2044;48.692;9.020;2022-11-15T12:26:45;3.33;;;3.13;;
4057;SDS011;2044;48.692;9.020;2022-11-15T12:29:19;3.07;;;2.87;;
4057;SDS011;2044;48.692;9.020;2022-11-15T12:31:50;3.13;;;2.93;;
4057;SDS011;2044;48.692;9.020;2022-11-15T12:34:34;2.57;;;2.37;;
4057;SDS011;2044;48.692;9.020;2022-11-15T12:40:30;2.27;;;2.17;;
4057;SDS011;2044;48.692;9.020;2022-11-15T12:46:05;2.27;;;2.17;;
4057;SDS011;2044;48.692;9.020;2022-11-15T12:48:46;3.60;;;3.00;;
4057;SDS011;2044;48.692;9.020;2022-11-15T12:51:20;2.70;;;2.50;;
4057;SDS011;2044;48.692;9.020;2022-11-15T12:53:48;3.17;;;2.40;;
4057;SDS011;2044;48.692;9.020;2022-11-15T12:56:22;2.40;;;2.20;;
4057;SDS011;2044;48.692;9.020;2022-11-15T12:58:50;2.30;;;2.20;;
4057;SDS011;2044;48.692;9.020;2022-11-15T13:04:22;2.53;;;2.33;;
4057;SDS011;2044;48.692;9.020;2022-11-15T13:06:53;2.37;;;2.27;;
4057;SDS011;2044;48.692;9.020;2022-11-15T13:15:35;3.83;;;2.47;;
4057;SDS011;2044;48.692;9.020;2022-11-15T13:21:01;21.33;;;4.67;;
4057;SDS011;2044;48.692;9.020;2022-11-15T13:23:52;43.73;;;7.00;;
4057;SDS011;2044;48.692;9.020;2022-11-15T13:26:20;2.67;;;2.47;;
4057;SDS011;2044;48.692;9.020;2022-11-15T13:28:48;10.37;;;2.83;;
4057;SDS011;2044;48.692;9.020;2022-11-15T13:34:03;19.10;;;4.20;;
4057;SDS011;2044;48.692;9.020;2022-11-15T13:36:47;16.80;;;2.70;;
4057;SDS011;2044;48.692;9.020;2022-11-15T13:39:24;3.40;;;1.93;;
4057;SDS011;2044;48.692;9.020;2022-11-15T13:41:53;2.00;;;1.73;;
4057;SDS011;2044;48.692;9.020;2022-11-15T13:44:20;1.97;;;1.77;;
4057;SDS011;2044;48.692;9.020;2022-11-15T13:46:48;3.03;;;1.43;;
4057;SDS011;2044;48.692;9.020;2022-11-15T13:49:28;1.63;;;1.50;;
4057;SDS011;2044;48.692;9.020;2022-11-15T13:51:56;2.47;;;2.00;;
4057;SDS011;2044;48.692;9.020;2022-11-15T13:54:25;3.17;;;2.30;;
4057;SDS011;2044;48.692;9.020;2022-11-15T13:56:56;2.30;;;1.50;;
4057;SDS011;2044;48.692;9.020;2022-11-15T13:59:28;4.87;;;1.90;;
4057;SDS011;2044;48.692;9.020;2022-11-15T14:01:57;2.47;;;1.97;;
4057;SDS011;2044;48.692;9.020;2022-11-15T14:04:27;2.70;;;2.23;;
4057;SDS011;2044;48.692;9.020;2022-11-15T14:06:58;9.00;;;8.10;;
4057;SDS011;2044;48.692;9.020;2022-11-15T14:09:33;9.57;;;6.17;;
4057;SDS011;2044;48.692;9.020;2022-11-15T14:12:02;6.60;;;4.03;;
4057;SDS011;2044;48.692;9.020;2022-11-15T14:14:44;16.00;;;11.27;;
4057;SDS011;2044;48.692;9.020;2022-11-15T14:17:18;5.77;;;2.77;;
4057;SDS011;2044;48.692;9.020;2022-11-15T14:19:48;4.10;;;2.50;;
4057;SDS011;2044;48.692;9.020;2022-11-15T14:22:17;5.43;;;2.83;;
4057;SDS011;2044;48.692;9.020;2022-11-15T14:25:03;5.47;;;2.47;;
4057;SDS011;2044;48.692;9.020;2022-11-15T14:27:40;3.33;;;2.67;;
4057;SDS011;2044;48.692;9.020;2022-11-15T14:30:12;2.73;;;2.33;;
4057;SDS011;2044;48.692;9.020;2022-11-15T14:32:41;3.17;;;2.87;;
4057;SDS011;2044;48.692;9.020;2022-11-15T14:35:12;5.13;;;3.10;;
4057;SDS011;2044;48.692;9.020;2022-11-15T14:37:40;8.70;;;6.80;;
4057;SDS011;2044;48.692;9.020;2022-11-15T14:40:12;6.07;;;5.23;;
4057;SDS011;2044;48.692;9.020;2022-11-15T14:42:39;6.73;;;3.27;;
4057;SDS011;2044;48.692;9.020;2022-11-15T14:45:09;6.80;;;3.97;;
4057;SDS011;2044;48.692;9.020;2022-11-15T14:47:39;3.63;;;3.17;;
4057;SDS011;2044;48.692;9.020;2022-11-15T14:50:06;3.13;;;2.80;;
4057;SDS011;2044;48.692;9.020;2022-11-15T14:52:36;6.53;;;3.53;;
4057;SDS011;2044;48.692;9.020;2022-11-15T14:55:08;3.80;;;2.80;;
4057;SDS011;2044;48.692;9.020;2022-11-15T14:57:41;3.63;;;3.27;;
4057;SDS011;2044;48.692;9.020;2022-11-15T15:00:08;2.77;;;2.40;;
4057;SDS011;2044;48.692;9.020;2022-11-15T15:02:36;4.50;;;2.57;;
4057;SDS011;2044;48.692;9.020;2022-11-15T15:05:08;3.63;;;2.60;;
4057;SDS011;2044;48.692;9.020;2022-11-15T15:07:42;5.03;;;3.70;;
4057;SDS011;2044;48.692;9.020;2022-11-15T15:10:08;3.60;;;2.83;;
4057;SDS011;2044;48.692;9.020;2022-11-15T15:12:37;4.00;;;3.37;;
4057;SDS011;2044;48.692;9.020;2022-11-15T15:15:04;3.80;;;3.27;;
4057;SDS011;2044;48.692;9.020;2022-11-15T15:17:32;3.70;;;3.03;;
4057;SDS011;2044;48.692;9.020;2022-11-15T15:19:59;3.63;;;3.33;;
4057;SDS011;2044;48.692;9.020;2022-11-15T15:22:25;4.27;;;2.60;;
4057;SDS011;2044;48.692;9.020;2022-11-15T15:24:55;3.90;;;2.67;;
4057;SDS011;2044;48.692;9.020;2022-11-15T15:27:22;3.27;;;2.97;;
4057;SDS011;2044;48.692;9.020;2022-11-15T15:29:50;4.57;;;3.13;;
4057;SDS011;2044;48.692;9.020;2022-11-15T15:32:16;3.50;;;2.63;;
4057;SDS011;2044;48.692;9.020;2022-11-15T15:34:43;3.47;;;2.80;;
4057;SDS011;2044;48.692;9.020;2022-11-15T15:37:19;3.93;;;2.90;;
4057;SDS011;2044;48.692;9.020;2022-11-15T15:39:49;4.70;;;2.50;;
4057;SDS011;2044;48.692;9.020;2022-11-15T15:42:17;6.43;;;3.60;;
4057;SDS011;2044;48.692;9.020;2022-11-15T15:44:44;7.77;;;3.63;;
4057;SDS011;2044;48.692;9.020;2022-11-15T15:47:12;6.37;;;3.50;;
4057;SDS011;2044;48.692;9.020;2022-11-15T15:49:42;4.60;;;3.10;;
4057;SDS011;2044;48.692;9.020;2022-11-15T15:52:09;6.80;;;3.80;;
4057;SDS011;2044;48.692;9.020;2022-11-15T15:54:36;8.00;;;4.80;;
4057;SDS011;2044;48.692;9.020;2022-11-15T15:57:04;5.30;;;3.43;;
4057;SDS011;2044;48.692;9.020;2022-11-15T15:59:31;6.87;;;3.80;;
4057;SDS011;2044;48.692;9.020;2022-11-15T16:01:58;8.90;;;3.80;;
4057;SDS011;2044;48.692;9.020;2022-11-15T16:04:26;7.10;;;3.10;;
4057;SDS011;2044;48.692;9.020;2022-11-15T16:06:55;5.60;;;3.10;;